• Join FlightAware (Why Join?)
  • Login
  • US Flag 
03:23AM EDT


 

Airport Tracker/Info


-or-


 

Live Flight TrackerFlight Track Log ✈ SKW6338 ✈ 03-Jul-2013 ✈ KLAX - KSAN

Flight Track Log - Related Links

Times and Time Zones

All times are in EDT time to prevent confusion due to time zone crossing. See the SKW6338 flight status page for this flight to view local times or setup timezone preferences in your user account.

Time Position Orientation Groundspeed Altitude Reporting Facility
EDT Latitude Longitude Course Direction KTS MPH feet Rate Location/Type
07:34PM 33.9000 -118.4667 185° South 186 214 2,500  Level Southern California TRACON
07:35PM 33.8572 -118.4714 185° South 198 228 3,600 1,140 Climbing Los Angeles Center
07:36PM 33.7911 -118.4689 178° South 213 245 5,100 1,380 Climbing Los Angeles Center
07:37PM 33.7256 -118.4344 156° South 226 260 6,500 1,200 Climbing Los Angeles Center
07:38PM 33.6756 -118.3850 141° Southeast 234 269 7,700 1,140 Climbing Los Angeles Center
07:39PM 33.6378 -118.3258 127° Southeast 234 269 8,900 600 Climbing Los Angeles Center
07:40PM 33.6006 -118.2536 122° Southeast 247 284 9,000  Climbing Los Angeles Center
07:41PM 33.5567 -118.1644 121° Southeast 257 296 9,000  Level Los Angeles Center
07:42PM 33.5164 -118.0928 124° Southeast 259 298 9,000  Level Los Angeles Center
07:43PM 33.4756 -118.0222 125° Southeast 258 297 9,000  Level Los Angeles Center
07:44PM 33.4353 -117.9506 124° Southeast 259 298 9,000  Level Los Angeles Center
07:45PM 33.3958 -117.8789 123° Southeast 259 298 9,000  Level Los Angeles Center
07:46PM 33.3475 -117.7947 124° Southeast 258 297 9,100  Climbing Los Angeles Center
07:47PM 33.3069 -117.7239 124° Southeast 258 297 9,100  Level Los Angeles Center
07:48PM 33.2642 -117.6544 126° Southeast 259 298 9,100  Level Los Angeles Center
07:49PM 33.2061 -117.6042 144° Southeast 256 295 9,100  Level Los Angeles Center
07:50PM 33.1472 -117.5558 145° Southeast 258 297 9,100  Level Los Angeles Center
07:51PM 33.0894 -117.5042 143° Southeast 259 298 9,100 -60 Level Los Angeles Center
07:52PM 33.0206 -117.4419 143° Southeast 260 299 9,000 -480 Descending Los Angeles Center
07:54PM 32.9681 -117.3806 136° Southeast 264 304 8,200 -960 Descending Los Angeles Center
07:55PM 32.9131 -117.3117 134° Southeast 282 325 7,100 -900 Descending Los Angeles Center
07:56PM 32.8589 -117.2464 135° Southeast 280 322 6,400 -780 Descending Los Angeles Center
07:57PM 32.8064 -117.1789 133° Southeast 279 321 5,600 -660 Descending Los Angeles Center
07:58PM 32.7781 -117.0867 110° East 279 321 5,100 -300 Descending Los Angeles Center
07:59PM 32.7558 -117.0022 107° East 267 307 5,000 -360 Descending Los Angeles Center
08:00PM 32.7081 -116.9444 134° Southeast 235 270 4,400 -660 Descending Los Angeles Center
08:01PM 32.6856 -117.0033 246° West 224 258 3,700 -720 Descending Los Angeles Center